Terminal Aerodrome Forecast
Issued by NWS

Home | Current Version | Previous Version | Text Only | Print | Product List | Glossary On
Versions: 1 2 3 4 5 6 7 8 9 10 11 12
000
FTUS45 KGGW 240520
TAFOLF
TAF
KOLF 240520Z 2406/2506 VRB06KT P6SM FEW180 WS020/17035KT
     FM241200 VRB03KT P6SM FEW150 WS020/20030KT
     FM241400 26009KT P6SM FEW110
     FM241600 30012KT P6SM FEW110
     FM250300 36006KT P6SM FEW190=

USA.gov is the U.S. government's official web portal to all federal, state and local government web resources and services.